sensor_id;sensor_type;location;lat;lon;timestamp;pressure;altitude;pressure_sealevel;temperature;humidity
19150;BME280;9707;49.158;8.632;2022-11-11T00:01:53;101856.59;;;19.69;40.31
19150;BME280;9707;49.158;8.632;2022-11-11T00:04:18;101856.59;;;19.69;39.93
19150;BME280;9707;49.158;8.632;2022-11-11T00:06:47;101864.78;;;19.68;39.63
19150;BME280;9707;49.158;8.632;2022-11-11T00:09:12;101859.38;;;19.68;39.54
19150;BME280;9707;49.158;8.632;2022-11-11T00:11:38;101856.84;;;19.65;39.64
19150;BME280;9707;49.158;8.632;2022-11-11T00:14:03;101857.78;;;19.64;39.44
19150;BME280;9707;49.158;8.632;2022-11-11T00:16:28;101857.00;;;19.62;39.18
19150;BME280;9707;49.158;8.632;2022-11-11T00:19:13;101860.66;;;19.61;39.28
19150;BME280;9707;49.158;8.632;2022-11-11T00:21:57;101869.81;;;19.58;39.20
19150;BME280;9707;49.158;8.632;2022-11-11T00:24:41;101878.00;;;19.57;39.04
19150;BME280;9707;49.158;8.632;2022-11-11T00:27:25;101867.31;;;19.54;39.34
19150;BME280;9707;49.158;8.632;2022-11-11T00:29:50;101866.47;;;19.53;39.21
19150;BME280;9707;49.158;8.632;2022-11-11T00:32:15;101866.53;;;19.52;39.10
19150;BME280;9707;49.158;8.632;2022-11-11T00:34:46;101862.94;;;19.51;39.03
19150;BME280;9707;49.158;8.632;2022-11-11T00:37:31;101875.69;;;19.49;38.72
19150;BME280;9707;49.158;8.632;2022-11-11T00:39:57;101875.75;;;19.48;38.76
19150;BME280;9707;49.158;8.632;2022-11-11T00:42:22;101877.59;;;19.47;38.65
19150;BME280;9707;49.158;8.632;2022-11-11T00:44:47;101878.53;;;19.46;38.86
19150;BME280;9707;49.158;8.632;2022-11-11T00:47:12;101873.22;;;19.45;38.88
19150;BME280;9707;49.158;8.632;2022-11-11T00:49:56;101879.56;;;19.44;38.87
19150;BME280;9707;49.158;8.632;2022-11-11T00:52:40;101884.25;;;19.40;38.73
19150;BME280;9707;49.158;8.632;2022-11-11T00:55:06;101889.66;;;19.40;38.72
19150;BME280;9707;49.158;8.632;2022-11-11T00:57:31;101888.88;;;19.38;38.73
19150;BME280;9707;49.158;8.632;2022-11-11T00:59:56;101896.03;;;19.39;38.59
19150;BME280;9707;49.158;8.632;2022-11-11T01:02:22;101893.41;;;19.38;38.60
19150;BME280;9707;49.158;8.632;2022-11-11T01:04:47;101890.69;;;19.38;38.58
19150;BME280;9707;49.158;8.632;2022-11-11T01:07:12;101891.66;;;19.37;38.51
19150;BME280;9707;49.158;8.632;2022-11-11T01:09:37;101901.59;;;19.36;38.46
19150;BME280;9707;49.158;8.632;2022-11-11T01:12:03;101907.94;;;19.35;38.44
19150;BME280;9707;49.158;8.632;2022-11-11T01:14:29;101915.19;;;19.35;38.44
19150;BME280;9707;49.158;8.632;2022-11-11T01:16:54;101902.59;;;19.34;38.54
19150;BME280;9707;49.158;8.632;2022-11-11T01:19:19;101911.69;;;19.33;38.54
19150;BME280;9707;49.158;8.632;2022-11-11T01:21:45;101917.97;;;19.33;38.49
19150;BME280;9707;49.158;8.632;2022-11-11T01:24:10;101908.19;;;19.31;38.49
19150;BME280;9707;49.158;8.632;2022-11-11T01:26:35;101914.44;;;19.31;38.53
19150;BME280;9707;49.158;8.632;2022-11-11T01:29:01;101913.59;;;19.31;38.42
19150;BME280;9707;49.158;8.632;2022-11-11T01:31:26;101904.66;;;19.29;38.47
19150;BME280;9707;49.158;8.632;2022-11-11T01:33:51;101918.19;;;19.29;38.81
19150;BME280;9707;49.158;8.632;2022-11-11T01:36:19;101913.72;;;19.28;38.44
19150;BME280;9707;49.158;8.632;2022-11-11T01:38:48;101912.00;;;19.27;38.41
19150;BME280;9707;49.158;8.632;2022-11-11T01:41:16;101903.88;;;19.27;38.51
19150;BME280;9707;49.158;8.632;2022-11-11T01:47:03;101893.22;;;19.24;38.72
19150;BME280;9707;49.158;8.632;2022-11-11T01:49:36;101893.22;;;19.24;38.40
19150;BME280;9707;49.158;8.632;2022-11-11T01:52:20;101899.59;;;19.23;38.23
19150;BME280;9707;49.158;8.632;2022-11-11T01:55:03;101906.88;;;19.21;38.21
19150;BME280;9707;49.158;8.632;2022-11-11T01:57:34;101903.34;;;19.19;38.20
19150;BME280;9707;49.158;8.632;2022-11-11T02:00:04;101914.16;;;19.19;38.04
19150;BME280;9707;49.158;8.632;2022-11-11T02:02:36;101917.81;;;19.18;38.18
19150;BME280;9707;49.158;8.632;2022-11-11T02:05:05;101918.72;;;19.18;38.25
19150;BME280;9707;49.158;8.632;2022-11-11T02:07:52;101922.44;;;19.16;38.11
19150;BME280;9707;49.158;8.632;2022-11-11T02:10:23;101926.09;;;19.15;38.17
19150;BME280;9707;49.158;8.632;2022-11-11T02:12:49;101915.28;;;19.15;38.32
19150;BME280;9707;49.158;8.632;2022-11-11T02:15:33;101903.59;;;19.14;38.18
19150;BME280;9707;49.158;8.632;2022-11-11T02:17:59;101898.25;;;19.13;38.19
19150;BME280;9707;49.158;8.632;2022-11-11T02:20:26;101893.75;;;19.13;38.18
19150;BME280;9707;49.158;8.632;2022-11-11T02:23:08;101892.84;;;19.13;38.01
19150;BME280;9707;49.158;8.632;2022-11-11T02:25:36;101891.13;;;19.12;38.06
19150;BME280;9707;49.158;8.632;2022-11-11T02:28:05;101887.53;;;19.11;37.84
19150;BME280;9707;49.158;8.632;2022-11-11T02:30:31;101889.38;;;19.11;37.95
19150;BME280;9707;49.158;8.632;2022-11-11T02:32:56;101887.63;;;19.10;37.78
19150;BME280;9707;49.158;8.632;2022-11-11T02:35:29;101889.38;;;19.11;38.09
19150;BME280;9707;49.158;8.632;2022-11-11T02:37:55;101892.16;;;19.09;38.13
19150;BME280;9707;49.158;8.632;2022-11-11T02:40:36;101898.44;;;19.10;38.20
19150;BME280;9707;49.158;8.632;2022-11-11T02:43:02;101902.06;;;19.09;38.09
19150;BME280;9707;49.158;8.632;2022-11-11T02:45:27;101898.50;;;19.08;38.38
19150;BME280;9707;49.158;8.632;2022-11-11T02:47:53;101906.63;;;19.08;38.29
19150;BME280;9707;49.158;8.632;2022-11-11T02:50:18;101907.47;;;19.09;38.34
19150;BME280;9707;49.158;8.632;2022-11-11T02:52:43;101902.94;;;19.09;38.21
19150;BME280;9707;49.158;8.632;2022-11-11T02:55:09;101900.31;;;19.08;38.34
19150;BME280;9707;49.158;8.632;2022-11-11T02:57:34;101896.75;;;19.07;38.14
19150;BME280;9707;49.158;8.632;2022-11-11T03:00:00;101898.56;;;19.07;38.42
19150;BME280;9707;49.158;8.632;2022-11-11T03:02:27;101897.69;;;19.06;38.03
19150;BME280;9707;49.158;8.632;2022-11-11T03:04:56;101903.09;;;19.06;37.86
19150;BME280;9707;49.158;8.632;2022-11-11T03:07:23;101892.28;;;19.06;37.99
19150;BME280;9707;49.158;8.632;2022-11-11T03:09:48;101884.28;;;19.05;38.02
19150;BME280;9707;49.158;8.632;2022-11-11T03:12:14;101883.41;;;19.04;38.00
19150;BME280;9707;49.158;8.632;2022-11-11T03:14:40;101884.28;;;19.05;37.92
19150;BME280;9707;49.158;8.632;2022-11-11T03:17:05;101889.75;;;19.03;38.12
19150;BME280;9707;49.158;8.632;2022-11-11T03:19:49;101896.00;;;19.04;39.54
19150;BME280;9707;49.158;8.632;2022-11-11T03:22:15;101906.75;;;19.05;40.36
19150;BME280;9707;49.158;8.632;2022-11-11T03:24:40;101908.28;;;19.11;39.81
19150;BME280;9707;49.158;8.632;2022-11-11T03:27:24;101910.97;;;19.11;38.84
19150;BME280;9707;49.158;8.632;2022-11-11T03:29:49;101902.94;;;19.09;38.45
19150;BME280;9707;49.158;8.632;2022-11-11T03:32:14;101911.94;;;19.10;39.66
19150;BME280;9707;49.158;8.632;2022-11-11T03:34:40;101916.38;;;19.11;39.12
19150;BME280;9707;49.158;8.632;2022-11-11T03:37:07;101927.13;;;19.12;38.77
19150;BME280;9707;49.158;8.632;2022-11-11T03:39:52;101932.59;;;19.11;38.17
19150;BME280;9707;49.158;8.632;2022-11-11T03:42:17;101945.28;;;19.09;38.17
19150;BME280;9707;49.158;8.632;2022-11-11T03:44:42;101947.19;;;19.07;38.11
19150;BME280;9707;49.158;8.632;2022-11-11T03:47:08;101958.00;;;19.07;37.90
19150;BME280;9707;49.158;8.632;2022-11-11T03:49:33;101954.50;;;19.05;38.04
19150;BME280;9707;49.158;8.632;2022-11-11T03:51:58;101963.53;;;19.04;37.84
19150;BME280;9707;49.158;8.632;2022-11-11T03:54:23;101964.50;;;19.03;37.79
19150;BME280;9707;49.158;8.632;2022-11-11T03:56:49;101960.06;;;19.02;38.10
19150;BME280;9707;49.158;8.632;2022-11-11T03:59:14;101966.41;;;19.01;37.93
19150;BME280;9707;49.158;8.632;2022-11-11T04:01:39;101960.13;;;19.00;37.93
19150;BME280;9707;49.158;8.632;2022-11-11T04:04:23;101965.69;;;18.97;37.78
19150;BME280;9707;49.158;8.632;2022-11-11T04:07:08;101972.13;;;18.95;37.87
19150;BME280;9707;49.158;8.632;2022-11-11T04:09:52;101965.88;;;18.93;38.03
19150;BME280;9707;49.158;8.632;2022-11-11T04:12:38;101956.03;;;18.92;37.97
19150;BME280;9707;49.158;8.632;2022-11-11T04:15:23;101965.09;;;18.91;37.87
19150;BME280;9707;49.158;8.632;2022-11-11T04:18:07;101969.72;;;18.89;37.89
19150;BME280;9707;49.158;8.632;2022-11-11T04:20:32;101975.13;;;18.89;37.80
19150;BME280;9707;49.158;8.632;2022-11-11T04:23:16;101970.63;;;18.88;37.90
19150;BME280;9707;49.158;8.632;2022-11-11T04:25:41;101969.78;;;18.87;37.76
19150;BME280;9707;49.158;8.632;2022-11-11T04:28:13;101973.34;;;18.88;37.56
19150;BME280;9707;49.158;8.632;2022-11-11T04:30:56;101973.44;;;18.86;37.70
19150;BME280;9707;49.158;8.632;2022-11-11T04:33:22;101969.84;;;18.86;37.66
19150;BME280;9707;49.158;8.632;2022-11-11T04:35:50;101986.94;;;18.86;37.54
19150;BME280;9707;49.158;8.632;2022-11-11T04:38:15;101992.34;;;18.86;37.59
19150;BME280;9707;49.158;8.632;2022-11-11T04:41:08;101994.16;;;18.86;37.74
19150;BME280;9707;49.158;8.632;2022-11-11T04:43:35;101997.81;;;18.85;37.49
19150;BME280;9707;49.158;8.632;2022-11-11T04:46:20;101996.84;;;18.86;37.58
19150;BME280;9707;49.158;8.632;2022-11-11T04:48:45;101990.56;;;18.85;37.14
19150;BME280;9707;49.158;8.632;2022-11-11T04:51:10;101993.25;;;18.85;37.40
19150;BME280;9707;49.158;8.632;2022-11-11T04:53:36;101995.09;;;18.85;37.33
19150;BME280;9707;49.158;8.632;2022-11-11T04:56:01;101988.81;;;18.84;37.28
19150;BME280;9707;49.158;8.632;2022-11-11T04:58:45;102000.63;;;18.82;37.45
19150;BME280;9707;49.158;8.632;2022-11-11T05:01:11;102010.47;;;18.83;37.58
19150;BME280;9707;49.158;8.632;2022-11-11T05:03:56;102006.03;;;18.82;37.61
19150;BME280;9707;49.158;8.632;2022-11-11T05:06:21;102017.72;;;18.82;37.57
19150;BME280;9707;49.158;8.632;2022-11-11T05:09:05;102014.13;;;18.82;37.52
19150;BME280;9707;49.158;8.632;2022-11-11T05:11:32;102023.97;;;18.83;37.54
19150;BME280;9707;49.158;8.632;2022-11-11T05:13:59;102012.31;;;18.82;37.61
19150;BME280;9707;49.158;8.632;2022-11-11T05:16:45;102015.09;;;18.81;37.66
19150;BME280;9707;49.158;8.632;2022-11-11T05:19:29;102025.00;;;18.80;37.54
19150;BME280;9707;49.158;8.632;2022-11-11T05:24:50;102025.97;;;18.79;38.24
19150;BME280;9707;49.158;8.632;2022-11-11T05:27:34;102034.06;;;18.79;37.87
19150;BME280;9707;49.158;8.632;2022-11-11T05:30:00;102026.84;;;18.80;37.50
19150;BME280;9707;49.158;8.632;2022-11-11T05:32:25;102028.72;;;18.78;37.54
19150;BME280;9707;49.158;8.632;2022-11-11T05:34:51;102026.84;;;18.80;37.53
19150;BME280;9707;49.158;8.632;2022-11-11T05:37:17;102023.25;;;18.79;37.46
19150;BME280;9707;49.158;8.632;2022-11-11T05:39:43;102021.44;;;18.80;37.70
19150;BME280;9707;49.158;8.632;2022-11-11T05:42:09;102029.56;;;18.80;37.42
19150;BME280;9707;49.158;8.632;2022-11-11T05:44:34;102025.00;;;18.80;37.59
19150;BME280;9707;49.158;8.632;2022-11-11T05:46:59;102029.56;;;18.80;37.65
19150;BME280;9707;49.158;8.632;2022-11-11T05:49:25;102025.09;;;18.79;37.39
19150;BME280;9707;49.158;8.632;2022-11-11T05:51:51;102036.75;;;18.79;37.56
19150;BME280;9707;49.158;8.632;2022-11-11T05:54:17;102044.00;;;18.79;37.66
19150;BME280;9707;49.158;8.632;2022-11-11T05:56:43;102036.81;;;18.78;37.59
19150;BME280;9707;49.158;8.632;2022-11-11T05:59:08;102043.13;;;18.78;37.65
19150;BME280;9707;49.158;8.632;2022-11-11T06:01:35;102048.50;;;18.78;37.63
19150;BME280;9707;49.158;8.632;2022-11-11T06:04:00;102055.72;;;18.78;37.86
19150;BME280;9707;49.158;8.632;2022-11-11T06:06:26;102063.75;;;18.79;38.14
19150;BME280;9707;49.158;8.632;2022-11-11T06:08:51;102060.19;;;18.79;37.90
19150;BME280;9707;49.158;8.632;2022-11-11T06:11:17;102061.94;;;18.80;38.13
19150;BME280;9707;49.158;8.632;2022-11-11T06:13:43;102068.31;;;18.79;38.29
19150;BME280;9707;49.158;8.632;2022-11-11T06:16:08;102064.72;;;18.78;38.35
19150;BME280;9707;49.158;8.632;2022-11-11T06:18:34;102073.59;;;18.80;38.96
19150;BME280;9707;49.158;8.632;2022-11-11T06:20:59;102063.69;;;18.81;38.66
19150;BME280;9707;49.158;8.632;2022-11-11T06:23:27;102075.28;;;18.83;38.63
19150;BME280;9707;49.158;8.632;2022-11-11T06:25:52;102072.59;;;18.83;38.58
19150;BME280;9707;49.158;8.632;2022-11-11T06:28:37;102076.25;;;18.82;38.58
19150;BME280;9707;49.158;8.632;2022-11-11T06:31:02;102075.28;;;18.83;39.12
19150;BME280;9707;49.158;8.632;2022-11-11T06:33:29;102071.66;;;18.84;38.89
19150;BME280;9707;49.158;8.632;2022-11-11T06:35:55;102078.81;;;18.85;38.91
19150;BME280;9707;49.158;8.632;2022-11-11T06:38:20;102074.28;;;18.85;38.84
19150;BME280;9707;49.158;8.632;2022-11-11T06:40:46;102076.91;;;18.87;38.93
19150;BME280;9707;49.158;8.632;2022-11-11T06:43:12;102077.78;;;18.87;38.91
19150;BME280;9707;49.158;8.632;2022-11-11T06:45:38;102078.66;;;18.88;39.06
19150;BME280;9707;49.158;8.632;2022-11-11T06:48:04;102085.84;;;18.89;39.54
19150;BME280;9707;49.158;8.632;2022-11-11T06:50:31;102083.94;;;18.91;39.29
19150;BME280;9707;49.158;8.632;2022-11-11T06:53:03;102088.38;;;18.92;39.67
19150;BME280;9707;49.158;8.632;2022-11-11T06:55:29;102086.50;;;18.94;39.25
19150;BME280;9707;49.158;8.632;2022-11-11T06:57:55;102094.50;;;18.95;39.96
19150;BME280;9707;49.158;8.632;2022-11-11T07:00:27;102094.44;;;18.97;39.88
19150;BME280;9707;49.158;8.632;2022-11-11T07:02:56;102094.38;;;18.98;39.48
19150;BME280;9707;49.158;8.632;2022-11-11T07:05:21;102091.59;;;19.00;39.48
19150;BME280;9707;49.158;8.632;2022-11-11T07:07:46;102095.16;;;19.00;40.03
19150;BME280;9707;49.158;8.632;2022-11-11T07:10:11;102100.50;;;19.02;39.51
19150;BME280;9707;49.158;8.632;2022-11-11T07:12:39;102095.25;;;18.99;38.77
19150;BME280;9707;49.158;8.632;2022-11-11T07:15:05;102103.38;;;18.99;39.06
19150;BME280;9707;49.158;8.632;2022-11-11T07:17:31;102097.13;;;18.97;39.51
19150;BME280;9707;49.158;8.632;2022-11-11T07:19:56;102110.56;;;18.98;39.53
19150;BME280;9707;49.158;8.632;2022-11-11T07:22:21;102107.81;;;19.00;39.88
19150;BME280;9707;49.158;8.632;2022-11-11T07:24:46;102110.56;;;18.98;39.44
19150;BME280;9707;49.158;8.632;2022-11-11T07:27:12;102111.47;;;18.99;39.62
19150;BME280;9707;49.158;8.632;2022-11-11T07:29:37;102107.81;;;19.00;39.97
19150;BME280;9707;49.158;8.632;2022-11-11T07:32:02;102116.88;;;18.99;40.05
19150;BME280;9707;49.158;8.632;2022-11-11T07:34:28;102110.56;;;18.98;40.29
19150;BME280;9707;49.158;8.632;2022-11-11T07:36:53;102118.63;;;19.00;40.06
19150;BME280;9707;49.158;8.632;2022-11-11T07:39:18;102112.25;;;19.01;40.22
19150;BME280;9707;49.158;8.632;2022-11-11T07:41:43;102114.97;;;19.01;40.35
19150;BME280;9707;49.158;8.632;2022-11-11T07:44:09;102111.31;;;19.02;40.20
19150;BME280;9707;49.158;8.632;2022-11-11T07:46:34;102117.59;;;19.02;40.43
19150;BME280;9707;49.158;8.632;2022-11-11T07:48:59;102105.03;;;19.01;40.37
19150;BME280;9707;49.158;8.632;2022-11-11T07:51:24;102105.84;;;19.03;40.16
19150;BME280;9707;49.158;8.632;2022-11-11T07:53:50;102102.25;;;19.03;40.53
19150;BME280;9707;49.158;8.632;2022-11-11T07:56:15;102099.53;;;19.03;40.33
19150;BME280;9707;49.158;8.632;2022-11-11T07:58:40;102109.41;;;19.04;40.25
19150;BME280;9707;49.158;8.632;2022-11-11T08:01:05;102110.28;;;19.04;40.57
19150;BME280;9707;49.158;8.632;2022-11-11T08:03:31;102112.03;;;19.05;40.54
19150;BME280;9707;49.158;8.632;2022-11-11T08:05:56;102112.91;;;19.06;40.40
19150;BME280;9707;49.158;8.632;2022-11-11T08:08:21;102118.31;;;19.06;40.20
19150;BME280;9707;49.158;8.632;2022-11-11T08:10:53;102122.78;;;19.07;40.26
19150;BME280;9707;49.158;8.632;2022-11-11T08:13:18;102130.88;;;19.07;40.52
19150;BME280;9707;49.158;8.632;2022-11-11T08:16:02;102119.13;;;19.08;40.52
19150;BME280;9707;49.158;8.632;2022-11-11T08:18:31;102125.41;;;19.08;40.59
19150;BME280;9707;49.158;8.632;2022-11-11T08:20:56;102126.25;;;19.09;40.42
19150;BME280;9707;49.158;8.632;2022-11-11T08:23:22;102129.84;;;19.09;40.19
19150;BME280;9707;49.158;8.632;2022-11-11T08:25:57;102122.66;;;19.10;40.30
19150;BME280;9707;49.158;8.632;2022-11-11T08:28:22;102123.50;;;19.10;40.28
19150;BME280;9707;49.158;8.632;2022-11-11T08:30:48;102128.84;;;19.12;40.59
19150;BME280;9707;49.158;8.632;2022-11-11T08:33:13;102118.94;;;19.12;40.50
19150;BME280;9707;49.158;8.632;2022-11-11T08:35:38;102112.56;;;19.13;39.96
19150;BME280;9707;49.158;8.632;2022-11-11T08:38:04;102118.03;;;19.12;39.77
19150;BME280;9707;49.158;8.632;2022-11-11T08:40:29;102120.88;;;19.09;39.74
19150;BME280;9707;49.158;8.632;2022-11-11T08:42:56;102120.97;;;19.07;40.20
19150;BME280;9707;49.158;8.632;2022-11-11T08:45:22;102111.91;;;19.08;40.66
19150;BME280;9707;49.158;8.632;2022-11-11T08:47:47;102120.81;;;19.10;40.71
19150;BME280;9707;49.158;8.632;2022-11-11T08:50:12;102114.38;;;19.13;40.88
19150;BME280;9707;49.158;8.632;2022-11-11T08:52:37;102107.09;;;19.15;40.95
19150;BME280;9707;49.158;8.632;2022-11-11T08:55:03;102113.28;;;19.17;40.88
19150;BME280;9707;49.158;8.632;2022-11-11T08:57:29;102119.47;;;19.19;40.78
19150;BME280;9707;49.158;8.632;2022-11-11T08:59:54;102118.56;;;19.20;41.00
19150;BME280;9707;49.158;8.632;2022-11-11T09:02:19;102122.09;;;19.22;41.09
19150;BME280;9707;49.158;8.632;2022-11-11T09:04:45;102115.72;;;19.23;40.75
19150;BME280;9707;49.158;8.632;2022-11-11T09:07:11;102115.59;;;19.26;41.31
19150;BME280;9707;49.158;8.632;2022-11-11T09:09:36;102119.97;;;19.28;40.94
19150;BME280;9707;49.158;8.632;2022-11-11T09:12:02;102106.41;;;19.30;41.16
19150;BME280;9707;49.158;8.632;2022-11-11T09:14:27;102107.19;;;19.32;40.66
19150;BME280;9707;49.158;8.632;2022-11-11T09:16:52;102108.00;;;19.34;40.48
19150;BME280;9707;49.158;8.632;2022-11-11T09:19:18;102107.91;;;19.35;40.82
19150;BME280;9707;49.158;8.632;2022-11-11T09:21:43;102105.16;;;19.37;40.63
19150;BME280;9707;49.158;8.632;2022-11-11T09:24:08;102109.59;;;19.38;40.92
19150;BME280;9707;49.158;8.632;2022-11-11T09:26:34;102102.31;;;19.40;41.00
19150;BME280;9707;49.158;8.632;2022-11-11T09:28:59;102107.63;;;19.41;40.45
19150;BME280;9707;49.158;8.632;2022-11-11T09:31:24;102096.75;;;19.43;40.43
19150;BME280;9707;49.158;8.632;2022-11-11T09:33:50;102097.63;;;19.43;41.00
19150;BME280;9707;49.158;8.632;2022-11-11T09:36:17;102099.25;;;19.47;41.39
19150;BME280;9707;49.158;8.632;2022-11-11T09:38:42;102098.22;;;19.50;40.94
19150;BME280;9707;49.158;8.632;2022-11-11T09:41:18;102096.31;;;19.52;40.72
19150;BME280;9707;49.158;8.632;2022-11-11T09:43:50;102102.50;;;19.54;40.73
19150;BME280;9707;49.158;8.632;2022-11-11T09:46:36;102103.31;;;19.56;40.31
19150;BME280;9707;49.158;8.632;2022-11-11T09:49:17;102103.31;;;19.56;40.71
19150;BME280;9707;49.158;8.632;2022-11-11T09:54:25;102113.19;;;19.57;40.86
19150;BME280;9707;49.158;8.632;2022-11-11T09:56:54;102114.78;;;19.61;40.68
19150;BME280;9707;49.158;8.632;2022-11-11T09:59:25;102118.34;;;19.61;40.45
19150;BME280;9707;49.158;8.632;2022-11-11T10:01:55;102115.56;;;19.63;40.46
19150;BME280;9707;49.158;8.632;2022-11-11T10:06:58;102136.25;;;19.64;40.54
19150;BME280;9707;49.158;8.632;2022-11-11T10:09:37;102136.19;;;19.65;40.16
19150;BME280;9707;49.158;8.632;2022-11-11T10:12:13;102138.16;;;19.62;40.15
19150;BME280;9707;49.158;8.632;2022-11-11T10:14:44;102131.00;;;19.61;40.69
19150;BME280;9707;49.158;8.632;2022-11-11T10:17:32;102119.38;;;19.59;40.89
19150;BME280;9707;49.158;8.632;2022-11-11T10:20:22;102123.03;;;19.58;40.97
19150;BME280;9707;49.158;8.632;2022-11-11T10:22:54;102129.31;;;19.58;41.26
19150;BME280;9707;49.158;8.632;2022-11-11T10:25:24;102125.66;;;19.59;41.09
19150;BME280;9707;49.158;8.632;2022-11-11T10:27:52;102122.91;;;19.61;41.28
19150;BME280;9707;49.158;8.632;2022-11-11T10:30:24;102116.47;;;19.63;40.83
19150;BME280;9707;49.158;8.632;2022-11-11T10:35:26;102132.88;;;19.59;40.77
19150;BME280;9707;49.158;8.632;2022-11-11T10:38:22;102137.25;;;19.61;41.42
19150;BME280;9707;49.158;8.632;2022-11-11T10:40:52;102119.38;;;19.59;41.20
19150;BME280;9707;49.158;8.632;2022-11-11T10:43:22;102118.34;;;19.61;41.52
19150;BME280;9707;49.158;8.632;2022-11-11T10:51:01;102101.75;;;19.69;41.71
19150;BME280;9707;49.158;8.632;2022-11-11T10:59:21;102085.38;;;19.72;41.34
19150;BME280;9707;49.158;8.632;2022-11-11T11:01:57;102077.19;;;19.73;41.63
19150;BME280;9707;49.158;8.632;2022-11-11T11:04:39;102079.72;;;19.76;42.17
19150;BME280;9707;49.158;8.632;2022-11-11T11:07:10;102076.81;;;19.81;41.88
19150;BME280;9707;49.158;8.632;2022-11-11T11:09:47;102074.00;;;19.82;41.79
19150;BME280;9707;49.158;8.632;2022-11-11T11:12:19;102073.81;;;19.87;41.75
19150;BME280;9707;49.158;8.632;2022-11-11T11:14:48;102069.16;;;19.89;41.84
19150;BME280;9707;49.158;8.632;2022-11-11T11:17:44;102064.41;;;19.94;42.04
19150;BME280;9707;49.158;8.632;2022-11-11T11:20:17;102062.41;;;19.97;41.95
19150;BME280;9707;49.158;8.632;2022-11-11T11:22:47;102064.09;;;20.00;41.71
19150;BME280;9707;49.158;8.632;2022-11-11T11:25:13;102058.53;;;20.03;41.71
19150;BME280;9707;49.158;8.632;2022-11-11T11:27:38;102058.38;;;20.06;41.68
19150;BME280;9707;49.158;8.632;2022-11-11T11:30:21;102053.84;;;20.06;41.34
19150;BME280;9707;49.158;8.632;2022-11-11T11:33:00;102058.31;;;20.07;41.21
19150;BME280;9707;49.158;8.632;2022-11-11T11:35:30;102059.22;;;20.08;41.44
19150;BME280;9707;49.158;8.632;2022-11-11T11:37:55;102053.78;;;20.08;41.42
19150;BME280;9707;49.158;8.632;2022-11-11T11:40:20;102051.00;;;20.09;41.41
19150;BME280;9707;49.158;8.632;2022-11-11T11:42:46;102052.75;;;20.10;41.67
19150;BME280;9707;49.158;8.632;2022-11-11T11:50:46;102049.03;;;20.13;41.61
19150;BME280;9707;49.158;8.632;2022-11-11T11:56:24;102044.78;;;20.07;41.55
19150;BME280;9707;49.158;8.632;2022-11-11T12:01:52;102045.00;;;20.03;41.71
19150;BME280;9707;49.158;8.632;2022-11-11T12:04:53;102044.88;;;20.06;41.98
19150;BME280;9707;49.158;8.632;2022-11-11T12:07:44;102052.09;;;20.05;41.83
19150;BME280;9707;49.158;8.632;2022-11-11T12:15:44;102061.25;;;20.03;41.81
19150;BME280;9707;49.158;8.632;2022-11-11T12:21:15;102061.25;;;20.03;41.96
19150;BME280;9707;49.158;8.632;2022-11-11T12:23:52;102057.56;;;20.04;42.02
19150;BME280;9707;49.158;8.632;2022-11-11T12:26:27;102055.75;;;20.04;41.99
19150;BME280;9707;49.158;8.632;2022-11-11T12:31:49;102059.22;;;20.08;42.15
19150;BME280;9707;49.158;8.632;2022-11-11T12:37:09;102050.13;;;20.09;42.15
19150;BME280;9707;49.158;8.632;2022-11-11T12:39:44;102053.66;;;20.11;42.56
19150;BME280;9707;49.158;8.632;2022-11-11T12:42:25;102051.72;;;20.13;42.40
19150;BME280;9707;49.158;8.632;2022-11-11T12:45:09;102056.19;;;20.14;42.47
19150;BME280;9707;49.158;8.632;2022-11-11T12:55:53;102047.72;;;20.20;42.50
19150;BME280;9707;49.158;8.632;2022-11-11T12:58:45;102044.94;;;20.21;42.78
19150;BME280;9707;49.158;8.632;2022-11-11T13:12:06;102038.19;;;20.30;42.67
19150;BME280;9707;49.158;8.632;2022-11-11T13:14:47;102038.19;;;20.30;42.75
19150;BME280;9707;49.158;8.632;2022-11-11T13:17:15;102041.69;;;20.32;42.55
19150;BME280;9707;49.158;8.632;2022-11-11T13:19:45;102039.94;;;20.31;42.41
19150;BME280;9707;49.158;8.632;2022-11-11T13:22:26;102039.06;;;20.30;42.74
19150;BME280;9707;49.158;8.632;2022-11-11T13:24:54;102034.53;;;20.31;42.64
19150;BME280;9707;49.158;8.632;2022-11-11T13:30:19;102029.13;;;20.31;42.66
19150;BME280;9707;49.158;8.632;2022-11-11T13:33:01;102028.09;;;20.33;42.90
19150;BME280;9707;49.158;8.632;2022-11-11T13:35:32;102015.41;;;20.34;42.83
19150;BME280;9707;49.158;8.632;2022-11-11T13:37:58;102020.66;;;20.37;42.92
19150;BME280;9707;49.158;8.632;2022-11-11T13:40:36;102020.66;;;20.37;42.44
19150;BME280;9707;49.158;8.632;2022-11-11T13:43:04;102034.22;;;20.37;42.90
19150;BME280;9707;49.158;8.632;2022-11-11T13:45:35;102027.84;;;20.38;42.96
19150;BME280;9707;49.158;8.632;2022-11-11T13:48:02;102027.84;;;20.38;42.98
19150;BME280;9707;49.158;8.632;2022-11-11T13:50:36;102024.09;;;20.40;43.08
19150;BME280;9707;49.158;8.632;2022-11-11T13:53:13;102023.19;;;20.40;42.94
19150;BME280;9707;49.158;8.632;2022-11-11T13:55:42;102025.91;;;20.40;42.93
19150;BME280;9707;49.158;8.632;2022-11-11T13:58:35;102024.16;;;20.39;42.69
19150;BME280;9707;49.158;8.632;2022-11-11T14:01:05;102028.94;;;20.34;42.46
19150;BME280;9707;49.158;8.632;2022-11-11T14:03:34;102027.34;;;20.30;42.55
19150;BME280;9707;49.158;8.632;2022-11-11T14:13:49;102038.44;;;20.25;42.87
19150;BME280;9707;49.158;8.632;2022-11-11T14:21:47;102044.09;;;20.21;42.68
19150;BME280;9707;49.158;8.632;2022-11-11T14:26:57;102046.88;;;20.19;42.59
19150;BME280;9707;49.158;8.632;2022-11-11T14:29:27;102048.69;;;20.19;42.38
19150;BME280;9707;49.158;8.632;2022-11-11T14:34:53;102043.47;;;20.16;42.48
19150;BME280;9707;49.158;8.632;2022-11-11T14:37:31;102047.03;;;20.16;42.40
19150;BME280;9707;49.158;8.632;2022-11-11T14:39:58;102047.03;;;20.16;42.32
19150;BME280;9707;49.158;8.632;2022-11-11T14:42:42;102043.47;;;20.16;42.18
19150;BME280;9707;49.158;8.632;2022-11-11T14:47:56;102050.75;;;20.14;42.02
19150;BME280;9707;49.158;8.632;2022-11-11T14:50:42;102049.97;;;20.12;42.27